Aérodrome :
LOGIN :

S'inscrire | Disclaimer

   EN    FR    IT 

 










Légende :    VFR   VFR Marginal   IFR   IFR Intensif   IFR Très Intensif
Visi : 
Plafond : 
>= 8 km
>= 3000ft
5 à 8 km
1000 à 3000 ft
1500m à 5 km
500 à 1000 ft
800 à 1500m
200 à 500 ft
< 800m
< 200 ft
Symboles :   Orages  Brouillard  Fortes neiges  Fortes précipitations  Vent > 20 kt
SIGMETs :   Divers  Orages  Givrage  Turbulence  Onde Orograph.  Cendres Volcan.







- Altitude de l'aérodrome : 17 ft
- Code IATA : GRQ


EHGG - Groningen Eelde

DERNIER METAR :
  • 240025Z AUTO 29001KT 9999 NSC 03/03 Q1031

METARs EXPIRÉS :
  • 232355Z AUTO 32003KT 9999 FEW022 03/02 Q1031
  • 232325Z AUTO 29002KT 9999 NSC 02/02 Q1031
  • 232255Z AUTO VRB02KT 9999 NSC 02/02 Q1031
  • 232225Z AUTO 32002KT 9000 NSC 03/02 Q1031
  • 232155Z AUTO 33002KT 9999 NSC 03/03 Q1032

TAF TAF EHGG
Valide du 24 à 00h jusqu'au 25 à 06h UTC


232315Z 2400/2506 VRB02KT 6000 NSC
BECMG 2400/2403 3000 BR
TEMPO 2402/2407 1200 BCFG
BECMG 2407/2410 CAVOK
BECMG 2410/2413 27012KT SCT030
TEMPO 2423/2503 29015G25KT 6000 SHRA SCT025CB BKN030
BECMG 2503/2506 29017KT
Pas de NOTAMs connus pour ce terrain.



MET'MAP, la Météo Aéronautique d'un coup d'oeil ! - Copyright ORBIFLY Décembre 2007 - Disclaimer

ORBIFLY MET'MAP TEAM :

Programmation & Développement : Alexandra Zaïnal
Conception & Développement : Baudouin d'Aumeries
Co-Programmation & Développement : Marc-Olivier Méhu
Soutien technique & logistique : Manuel Goepfert

Contact : metmap@orbifly.com




SOURCES & CREDITS :

   NOAA